createdAt,value
2023-02-14T00:01:51.613Z,16.80
2023-02-14T00:04:20.747Z,16.90
2023-02-14T00:06:48.228Z,16.40
2023-02-14T00:09:16.812Z,16.73
2023-02-14T00:11:45.221Z,15.33
2023-02-14T00:14:31.646Z,17.30
2023-02-14T00:16:59.116Z,16.20
2023-02-14T00:19:28.188Z,17.20
2023-02-14T00:21:56.288Z,17.03
2023-02-14T00:24:27.406Z,16.80
2023-02-14T00:26:54.911Z,16.00
2023-02-14T00:29:25.244Z,16.53
2023-02-14T00:31:57.352Z,17.47
2023-02-14T00:34:28.473Z,16.33
2023-02-14T00:36:58.687Z,16.20
2023-02-14T00:39:27.129Z,18.43
2023-02-14T00:41:55.648Z,16.90
2023-02-14T00:44:23.627Z,15.73
2023-02-14T00:46:51.227Z,15.90
2023-02-14T00:49:18.903Z,15.30
2023-02-14T00:51:46.554Z,15.73
2023-02-14T00:54:14.598Z,15.47
2023-02-14T00:56:42.617Z,16.03
2023-02-14T00:59:16.913Z,15.60
2023-02-14T01:01:44.278Z,14.73
2023-02-14T01:04:13.434Z,15.20
2023-02-14T01:06:42.260Z,14.80
2023-02-14T01:09:10.453Z,15.87
2023-02-14T01:11:38.348Z,16.50
2023-02-14T01:14:07.269Z,15.47
2023-02-14T01:16:34.879Z,14.77
2023-02-14T01:19:03.597Z,15.87
2023-02-14T01:21:34.271Z,16.10
2023-02-14T01:24:04.795Z,15.57
2023-02-14T01:26:33.664Z,14.83
2023-02-14T01:29:05.662Z,15.47
2023-02-14T01:31:34.597Z,16.10
2023-02-14T01:34:03.131Z,13.70
2023-02-14T01:36:32.433Z,16.67
2023-02-14T01:39:07.072Z,16.10
2023-02-14T01:41:36.722Z,15.30
2023-02-14T01:44:17.088Z,15.33
2023-02-14T01:46:49.459Z,15.53
2023-02-14T01:49:23.041Z,17.47
2023-02-14T01:51:54.495Z,16.73
2023-02-14T01:54:25.558Z,17.00
2023-02-14T01:56:58.323Z,17.23
2023-02-14T01:59:28.997Z,16.80
2023-02-14T02:01:57.033Z,15.30
2023-02-14T02:04:38.420Z,16.70
2023-02-14T02:07:07.817Z,17.27
2023-02-14T02:09:41.257Z,17.70
2023-02-14T02:12:10.555Z,16.73
2023-02-14T02:14:39.121Z,19.20
2023-02-14T02:17:16.130Z,18.43
2023-02-14T02:19:58.217Z,17.73
2023-02-14T02:22:46.370Z,18.13
2023-02-14T02:25:19.371Z,17.47
2023-02-14T02:27:58.518Z,18.43
2023-02-14T02:30:42.159Z,17.47
2023-02-14T02:33:13.417Z,17.77
2023-02-14T02:35:46.318Z,18.00
2023-02-14T02:38:13.927Z,16.80
2023-02-14T02:41:11.341Z,17.10
2023-02-14T02:43:38.750Z,17.40
2023-02-14T02:46:36.487Z,17.03
2023-02-14T02:49:35.189Z,16.97
2023-02-14T02:52:23.942Z,16.40
2023-02-14T02:54:57.745Z,17.60
2023-02-14T02:57:32.379Z,16.57
2023-02-14T03:00:00.580Z,17.50
2023-02-14T03:02:58.430Z,16.13
2023-02-14T03:05:28.494Z,16.00
2023-02-14T03:07:55.932Z,17.50
2023-02-14T03:10:25.510Z,16.10
2023-02-14T03:13:22.368Z,16.83
2023-02-14T03:16:08.530Z,16.67
2023-02-14T03:19:14.915Z,16.50
2023-02-14T03:21:48.034Z,17.47
2023-02-14T03:24:22.475Z,18.27
2023-02-14T03:26:53.838Z,17.50
2023-02-14T03:29:39.467Z,17.33
2023-02-14T03:32:26.375Z,18.20
2023-02-14T03:34:58.421Z,17.80
2023-02-14T03:37:46.644Z,17.40
2023-02-14T03:40:23.967Z,17.93
2023-02-14T03:43:11.853Z,17.40
2023-02-14T03:45:52.272Z,17.87
2023-02-14T03:48:20.627Z,18.00
2023-02-14T03:50:49.585Z,17.90
2023-02-14T03:53:20.702Z,18.87
2023-02-14T03:56:06.894Z,17.10
2023-02-14T03:58:46.116Z,18.07
2023-02-14T04:01:29.443Z,17.17
2023-02-14T04:03:58.184Z,17.73
2023-02-14T04:06:26.727Z,18.47
2023-02-14T04:08:54.519Z,18.53
2023-02-14T04:11:30.693Z,16.97
2023-02-14T04:13:59.634Z,20.70
2023-02-14T04:16:28.912Z,19.50
2023-02-14T04:19:15.802Z,18.20
2023-02-14T04:21:43.167Z,16.10
2023-02-14T04:24:11.036Z,15.67
2023-02-14T04:26:39.698Z,17.90
2023-02-14T04:29:07.467Z,17.70
2023-02-14T04:31:39.053Z,18.27
2023-02-14T04:34:08.618Z,17.90
2023-02-14T04:36:35.881Z,17.87
2023-02-14T04:39:03.845Z,17.57
2023-02-14T04:41:31.406Z,18.40
2023-02-14T04:43:59.047Z,17.00
2023-02-14T04:46:29.336Z,17.30
2023-02-14T04:48:59.504Z,19.07
2023-02-14T04:51:27.750Z,16.97
2023-02-14T04:53:55.336Z,16.00
2023-02-14T04:56:22.503Z,15.10
2023-02-14T04:58:51.440Z,16.30
2023-02-14T05:01:22.142Z,17.20
2023-02-14T05:03:49.621Z,17.40
2023-02-14T05:06:17.884Z,15.90
2023-02-14T05:08:45.092Z,14.70
2023-02-14T05:11:12.305Z,15.43
2023-02-14T05:13:39.835Z,16.67
2023-02-14T05:16:07.589Z,15.47
2023-02-14T05:18:34.877Z,15.60
2023-02-14T05:21:02.442Z,17.23
2023-02-14T05:23:31.477Z,16.27
2023-02-14T05:26:00.594Z,15.67
2023-02-14T05:28:31.571Z,15.37
2023-02-14T05:30:59.512Z,17.10
2023-02-14T05:33:28.216Z,15.60
2023-02-14T05:35:55.459Z,14.80
2023-02-14T05:38:22.821Z,16.27
2023-02-14T05:40:57.494Z,17.27
2023-02-14T05:43:27.204Z,15.50
2023-02-14T05:45:55.745Z,16.57
2023-02-14T05:48:25.605Z,15.77
2023-02-14T05:50:53.845Z,14.57
2023-02-14T05:53:23.412Z,15.60
2023-02-14T05:55:50.630Z,15.63
2023-02-14T05:58:17.831Z,14.30
2023-02-14T06:00:45.346Z,16.57
2023-02-14T06:03:13.647Z,15.40
2023-02-14T06:05:40.922Z,16.17
2023-02-14T06:08:13.641Z,14.87
2023-02-14T06:10:42.600Z,14.27
2023-02-14T06:13:10.602Z,14.97
2023-02-14T06:15:38.907Z,16.40
2023-02-14T06:18:07.447Z,16.67
2023-02-14T06:20:36.178Z,16.80
2023-02-14T06:23:05.351Z,15.43
2023-02-14T06:25:32.841Z,15.30
2023-02-14T06:28:01.726Z,14.93
2023-02-14T06:30:31.666Z,14.63
2023-02-14T06:32:59.317Z,16.00
2023-02-14T06:35:27.637Z,17.30
2023-02-14T06:37:58.070Z,16.37
2023-02-14T06:40:26.385Z,15.90
2023-02-14T06:42:55.550Z,17.43
2023-02-14T06:45:22.719Z,16.73
2023-02-14T06:47:51.964Z,13.10
2023-02-14T06:50:20.709Z,15.93
2023-02-14T06:52:50.881Z,14.90
2023-02-14T06:55:18.569Z,15.10
2023-02-14T06:57:49.978Z,13.67
2023-02-14T07:00:17.366Z,14.97
2023-02-14T07:02:44.728Z,13.20
2023-02-14T07:05:11.998Z,14.10
2023-02-14T07:07:39.564Z,15.40
2023-02-14T07:10:09.246Z,12.60
2023-02-14T07:12:39.872Z,12.53
2023-02-14T07:15:08.658Z,13.10
2023-02-14T07:17:38.068Z,13.00
2023-02-14T07:20:06.819Z,15.10
2023-02-14T07:22:34.730Z,14.13
2023-02-14T07:25:04.633Z,13.80
2023-02-14T07:27:33.022Z,11.80
2023-02-14T07:30:06.159Z,12.77
2023-02-14T07:32:33.526Z,12.80
2023-02-14T07:35:01.772Z,12.23
2023-02-14T07:37:28.987Z,13.60
2023-02-14T07:39:59.176Z,13.50
2023-02-14T07:42:26.460Z,13.17
2023-02-14T07:44:54.861Z,13.30
2023-02-14T07:47:25.036Z,13.27
2023-02-14T07:49:52.573Z,12.20
2023-02-14T07:52:20.122Z,13.20
2023-02-14T07:54:51.069Z,12.63
2023-02-14T07:57:18.352Z,13.03
2023-02-14T07:59:45.846Z,13.30
2023-02-14T08:02:14.380Z,13.13
2023-02-14T08:04:45.478Z,14.30
2023-02-14T08:07:13.098Z,11.63
2023-02-14T08:09:42.905Z,13.67
2023-02-14T08:12:32.550Z,13.90
2023-02-14T08:15:19.789Z,12.07
2023-02-14T08:17:49.779Z,13.37
2023-02-14T08:20:18.110Z,13.50
2023-02-14T08:22:45.331Z,13.20
2023-02-14T08:25:12.843Z,12.03
2023-02-14T08:27:40.203Z,13.77
2023-02-14T08:30:11.745Z,13.93
2023-02-14T08:32:40.013Z,15.37
2023-02-14T08:35:11.088Z,14.60
2023-02-14T08:37:43.418Z,13.27
2023-02-14T08:40:10.941Z,12.50
2023-02-14T08:42:40.857Z,13.70
2023-02-14T08:45:08.274Z,20.13
2023-02-14T08:47:35.865Z,14.03
2023-02-14T08:50:05.510Z,14.60
2023-02-14T08:52:32.841Z,13.47
2023-02-14T08:55:00.160Z,14.13
2023-02-14T08:57:28.776Z,13.37
2023-02-14T08:59:56.802Z,13.13
2023-02-14T09:02:24.882Z,14.37
2023-02-14T09:04:53.718Z,13.17
2023-02-14T09:07:22.364Z,13.33
2023-02-14T09:09:53.636Z,13.47
2023-02-14T09:12:21.928Z,13.10
2023-02-14T09:14:50.668Z,14.73
2023-02-14T09:17:17.906Z,13.47
2023-02-14T09:19:47.464Z,13.87
2023-02-14T09:22:15.030Z,16.90
2023-02-14T09:24:42.299Z,18.10
2023-02-14T09:27:09.565Z,20.17
2023-02-14T09:29:36.900Z,17.20
2023-02-14T09:32:05.111Z,13.70
2023-02-14T09:34:33.852Z,15.87
2023-02-14T09:37:01.470Z,14.47
2023-02-14T09:39:30.032Z,13.90
2023-02-14T09:42:17.890Z,12.87
2023-02-14T09:45:00.938Z,13.83
2023-02-14T09:47:37.856Z,14.50
2023-02-14T09:50:34.415Z,13.27
2023-02-14T09:53:05.552Z,14.73
2023-02-14T09:55:39.545Z,17.40
2023-02-14T09:58:15.741Z,14.40
2023-02-14T10:00:47.376Z,13.20
2023-02-14T10:03:19.749Z,14.33
2023-02-14T10:06:05.929Z,12.87
2023-02-14T10:09:05.855Z,13.47
2023-02-14T10:11:36.229Z,12.73
2023-02-14T10:14:24.524Z,13.57
2023-02-14T10:16:54.460Z,12.80
2023-02-14T10:19:25.326Z,14.63
2023-02-14T10:22:00.881Z,13.27
2023-02-14T10:24:34.285Z,15.67
2023-02-14T10:27:12.053Z,14.20
2023-02-14T10:29:40.285Z,15.93
2023-02-14T10:32:14.933Z,14.97
2023-02-14T10:34:45.847Z,14.40
2023-02-14T10:37:17.047Z,14.47
2023-02-14T10:40:03.273Z,13.93
2023-02-14T10:42:36.963Z,15.03
2023-02-14T10:45:15.762Z,15.43
2023-02-14T10:47:52.990Z,14.73
2023-02-14T10:50:27.442Z,16.13
2023-02-14T10:53:15.150Z,17.10
2023-02-14T10:55:56.862Z,15.77
2023-02-14T10:58:29.417Z,14.40
2023-02-14T11:01:08.496Z,15.60
2023-02-14T11:03:38.642Z,16.13
2023-02-14T11:06:08.728Z,14.50
2023-02-14T11:08:37.515Z,13.80
2023-02-14T11:11:14.358Z,18.17
2023-02-14T11:13:42.006Z,15.57
2023-02-14T11:16:10.733Z,14.93
2023-02-14T11:18:40.377Z,17.17
2023-02-14T11:21:09.250Z,16.33
2023-02-14T11:23:44.882Z,16.40
2023-02-14T11:26:21.712Z,15.03
2023-02-14T11:29:05.423Z,14.77
2023-02-14T11:31:41.031Z,17.53
2023-02-14T11:34:37.017Z,15.83
2023-02-14T11:37:05.024Z,16.60
2023-02-14T11:39:33.454Z,19.00
2023-02-14T11:42:04.581Z,18.30
2023-02-14T11:44:33.885Z,17.20
2023-02-14T11:47:31.273Z,16.00
2023-02-14T11:50:03.522Z,15.97
2023-02-14T11:52:31.065Z,14.63
2023-02-14T11:54:59.826Z,20.93
2023-02-14T11:57:37.110Z,20.67
2023-02-14T12:00:17.027Z,17.63
2023-02-14T12:02:45.330Z,16.23
2023-02-14T12:05:18.700Z,17.70
2023-02-14T12:07:48.870Z,17.93
2023-02-14T12:10:16.966Z,16.20
2023-02-14T12:12:53.386Z,16.40
2023-02-14T12:15:36.877Z,16.50
2023-02-14T12:18:11.459Z,14.87
2023-02-14T12:20:45.011Z,15.53
2023-02-14T12:23:35.902Z,15.40
2023-02-14T12:26:09.432Z,15.50
2023-02-14T12:28:40.112Z,17.63
2023-02-14T12:31:16.352Z,15.97
2023-02-14T12:33:46.365Z,16.03
2023-02-14T12:36:37.922Z,13.30
2023-02-14T12:39:12.001Z,14.87
2023-02-14T12:42:07.495Z,14.17
2023-02-14T12:44:44.186Z,15.47
2023-02-14T12:47:20.603Z,17.13
2023-02-14T12:50:09.684Z,15.37
2023-02-14T12:52:45.510Z,18.00
2023-02-14T12:55:29.287Z,16.40
2023-02-14T12:58:01.030Z,15.93
2023-02-14T13:00:34.434Z,14.83
2023-02-14T13:03:10.436Z,17.17
2023-02-14T13:06:21.440Z,15.73
2023-02-14T13:09:03.066Z,18.70
2023-02-14T13:11:49.185Z,18.80
2023-02-14T13:14:29.753Z,15.50
2023-02-14T13:17:03.390Z,17.40
2023-02-14T13:19:32.201Z,16.67
2023-02-14T13:22:01.383Z,18.40
2023-02-14T13:24:30.760Z,18.00
2023-02-14T13:27:02.400Z,15.80
2023-02-14T13:29:45.143Z,18.53
2023-02-14T13:32:16.257Z,17.40
2023-02-14T13:34:46.997Z,19.73
2023-02-14T13:37:17.655Z,18.90
2023-02-14T13:39:50.135Z,18.07
2023-02-14T13:42:42.122Z,18.20
2023-02-14T13:45:37.963Z,18.67
2023-02-14T13:48:11.581Z,22.97
2023-02-14T13:50:50.003Z,19.23
2023-02-14T13:53:31.600Z,20.93
2023-02-14T13:55:59.882Z,19.70
2023-02-14T13:58:30.889Z,23.57
2023-02-14T14:01:00.144Z,20.10
2023-02-14T14:03:31.457Z,17.77
2023-02-14T14:06:02.665Z,19.40
2023-02-14T14:08:31.873Z,17.30
2023-02-14T14:11:04.813Z,18.10
2023-02-14T14:13:41.205Z,17.17
2023-02-14T14:16:29.424Z,16.40
2023-02-14T14:19:04.637Z,17.30
2023-02-14T14:21:36.044Z,16.37
2023-02-14T14:24:10.397Z,17.40
2023-02-14T14:26:43.008Z,17.00
2023-02-14T14:29:18.558Z,18.00
2023-02-14T14:31:47.059Z,17.30
2023-02-14T14:34:20.163Z,17.87
2023-02-14T14:36:48.295Z,18.57
2023-02-14T14:39:26.045Z,18.87
2023-02-14T14:41:53.489Z,17.90
2023-02-14T14:44:22.347Z,17.73
2023-02-14T14:46:49.913Z,21.60
2023-02-14T14:49:23.466Z,19.70
2023-02-14T14:51:51.744Z,18.07
2023-02-14T14:54:20.509Z,17.70
2023-02-14T14:56:56.300Z,17.33
2023-02-14T14:59:29.133Z,19.30
2023-02-14T15:01:57.946Z,17.07
2023-02-14T15:04:30.246Z,16.90
2023-02-14T15:06:58.360Z,18.07
2023-02-14T15:09:30.314Z,19.90
2023-02-14T15:12:18.904Z,19.03
2023-02-14T15:14:55.528Z,19.20
2023-02-14T15:17:30.879Z,18.33
2023-02-14T15:20:02.144Z,18.80
2023-02-14T15:22:31.257Z,21.23
2023-02-14T15:24:58.862Z,19.00
2023-02-14T15:27:31.022Z,19.10
2023-02-14T15:30:09.621Z,19.60
2023-02-14T15:32:40.236Z,18.23
2023-02-14T15:35:09.795Z,18.80
2023-02-14T15:37:37.711Z,18.80
2023-02-14T15:40:14.849Z,20.90
2023-02-14T15:42:44.501Z,19.90
2023-02-14T15:45:31.224Z,20.73
2023-02-14T15:48:04.372Z,17.33
2023-02-14T15:50:32.394Z,19.50
2023-02-14T15:53:09.867Z,19.73
2023-02-14T15:55:38.497Z,21.03
2023-02-14T15:58:11.253Z,21.00
2023-02-14T16:00:40.318Z,22.23
2023-02-14T16:03:10.397Z,22.40
2023-02-14T16:05:37.690Z,22.23
2023-02-14T16:08:23.983Z,20.90
2023-02-14T16:11:13.483Z,22.00
2023-02-14T16:13:42.959Z,23.23
2023-02-14T16:16:11.995Z,23.03
2023-02-14T16:18:39.953Z,22.43
2023-02-14T16:21:19.142Z,22.70
2023-02-14T16:24:10.662Z,23.53
2023-02-14T16:26:44.453Z,26.90
2023-02-14T16:29:35.043Z,24.00
2023-02-14T16:32:16.961Z,23.63
2023-02-14T16:34:48.299Z,24.53
2023-02-14T16:37:28.710Z,26.57
2023-02-14T16:40:00.538Z,25.97
2023-02-14T16:42:31.066Z,26.47
2023-02-14T16:44:58.456Z,25.00
2023-02-14T16:47:27.657Z,25.87
2023-02-14T16:49:55.987Z,27.50
2023-02-14T16:52:26.007Z,26.73
2023-02-14T16:54:53.508Z,24.97
2023-02-14T16:57:23.764Z,24.70
2023-02-14T16:59:52.721Z,26.80
2023-02-14T17:02:22.494Z,25.07
2023-02-14T17:04:50.256Z,25.87
2023-02-14T17:07:18.264Z,25.60
2023-02-14T17:09:47.860Z,23.77
2023-02-14T17:12:17.437Z,26.80
2023-02-14T17:14:49.377Z,29.33
2023-02-14T17:17:19.549Z,28.73
2023-02-14T17:19:46.897Z,28.70
2023-02-14T17:22:16.317Z,26.20
2023-02-14T17:24:44.360Z,28.40
2023-02-14T17:27:15.373Z,27.67
2023-02-14T17:29:42.984Z,25.50
2023-02-14T17:32:15.154Z,25.67
2023-02-14T17:34:42.464Z,28.83
2023-02-14T17:37:10.350Z,27.83
2023-02-14T17:39:38.539Z,29.20
2023-02-14T17:42:06.104Z,26.07
2023-02-14T17:44:35.798Z,27.70
2023-02-14T17:47:05.309Z,27.63
2023-02-14T17:49:32.845Z,31.23
2023-02-14T17:52:00.539Z,28.00
2023-02-14T17:54:28.185Z,27.47
2023-02-14T17:56:55.504Z,25.37
2023-02-14T17:59:24.136Z,23.83
2023-02-14T18:01:56.806Z,23.13
2023-02-14T18:04:25.947Z,21.57
2023-02-14T18:06:54.830Z,20.57
2023-02-14T18:09:22.949Z,20.10
2023-02-14T18:11:52.002Z,18.70
2023-02-14T18:14:24.032Z,17.13
2023-02-14T18:16:52.511Z,19.90
2023-02-14T18:19:20.899Z,18.60
2023-02-14T18:21:50.904Z,18.70
2023-02-14T18:24:20.644Z,19.60
2023-02-14T18:26:48.027Z,18.33
2023-02-14T18:29:15.434Z,18.80
2023-02-14T18:31:46.951Z,18.47
2023-02-14T18:34:14.846Z,19.93
2023-02-14T18:36:42.235Z,18.63
2023-02-14T18:39:10.270Z,18.40
2023-02-14T18:41:40.341Z,18.43
2023-02-14T18:44:08.621Z,18.17
2023-02-14T18:46:37.805Z,18.67
2023-02-14T18:49:10.162Z,17.80
2023-02-14T18:51:39.643Z,19.37
2023-02-14T18:54:07.231Z,28.50
2023-02-14T18:56:36.559Z,23.53
2023-02-14T18:59:05.847Z,21.90
2023-02-14T19:01:40.650Z,19.73
2023-02-14T19:04:12.724Z,18.90
2023-02-14T19:06:43.060Z,21.00
2023-02-14T19:09:15.229Z,18.47
2023-02-14T19:11:42.667Z,18.37
2023-02-14T19:14:13.353Z,23.20
2023-02-14T19:16:43.762Z,20.37
2023-02-14T19:19:11.616Z,20.07
2023-02-14T19:21:38.819Z,20.40
2023-02-14T19:24:10.698Z,24.67
2023-02-14T19:26:41.680Z,22.23
2023-02-14T19:29:14.869Z,21.67
2023-02-14T19:31:44.748Z,22.90
2023-02-14T19:34:20.796Z,21.00
2023-02-14T19:36:50.731Z,19.80
2023-02-14T19:39:19.762Z,21.77
2023-02-14T19:41:47.690Z,20.90
2023-02-14T19:44:17.536Z,23.20
2023-02-14T19:46:47.821Z,25.13
2023-02-14T19:49:16.327Z,20.20
2023-02-14T19:51:45.394Z,20.53
2023-02-14T19:54:13.295Z,20.70
2023-02-14T19:56:43.650Z,20.50
2023-02-14T19:59:17.204Z,20.47
2023-02-14T20:01:48.574Z,20.37
2023-02-14T20:04:18.121Z,21.37
2023-02-14T20:06:46.554Z,22.30
2023-02-14T20:09:16.748Z,21.90
2023-02-14T20:11:51.739Z,22.30
2023-02-14T20:14:23.514Z,23.40
2023-02-14T20:16:58.344Z,23.20
2023-02-14T20:19:29.476Z,24.20
2023-02-14T20:21:56.886Z,22.93
2023-02-14T20:24:29.657Z,24.30
2023-02-14T20:27:00.297Z,23.77
2023-02-14T20:29:28.114Z,25.73
2023-02-14T20:31:58.043Z,24.30
2023-02-14T20:34:26.824Z,25.57
2023-02-14T20:36:56.138Z,25.47
2023-02-14T20:39:24.581Z,26.73
2023-02-14T20:41:53.031Z,22.17
2023-02-14T20:44:23.409Z,28.87
2023-02-14T20:46:51.744Z,29.10
2023-02-14T20:49:20.729Z,28.00
2023-02-14T20:51:52.958Z,26.00
2023-02-14T20:54:21.390Z,25.80
2023-02-14T20:56:50.577Z,25.37
2023-02-14T20:59:26.856Z,21.87
2023-02-14T21:01:56.163Z,23.23
2023-02-14T21:04:24.987Z,24.17
2023-02-14T21:06:52.499Z,23.07
2023-02-14T21:09:24.376Z,24.80
2023-02-14T21:11:54.787Z,22.77
2023-02-14T21:14:22.088Z,23.73
2023-02-14T21:16:49.410Z,24.20
2023-02-14T21:19:17.507Z,27.70
2023-02-14T21:21:45.599Z,24.57
2023-02-14T21:24:14.640Z,26.70
2023-02-14T21:26:42.645Z,23.87
2023-02-14T21:29:11.341Z,22.00
2023-02-14T21:31:38.642Z,23.30
2023-02-14T21:34:06.183Z,22.67
2023-02-14T21:36:37.087Z,23.40
2023-02-14T21:39:06.197Z,22.07
2023-02-14T21:41:33.902Z,22.40
2023-02-14T21:44:04.819Z,22.73
2023-02-14T21:46:35.608Z,24.70
2023-02-14T21:49:23.045Z,22.20
2023-02-14T21:51:53.839Z,21.60
2023-02-14T21:54:21.050Z,22.40
2023-02-14T21:56:49.676Z,21.63
2023-02-14T21:59:18.035Z,25.20
2023-02-14T22:01:45.777Z,22.27
2023-02-14T22:04:16.744Z,21.47
2023-02-14T22:06:45.324Z,22.40
2023-02-14T22:09:14.846Z,22.07
2023-02-14T22:11:42.131Z,19.80
2023-02-14T22:14:14.491Z,19.53
2023-02-14T22:16:42.634Z,21.10
2023-02-14T22:19:16.154Z,20.40
2023-02-14T22:21:44.348Z,20.17
2023-02-14T22:24:14.784Z,22.13
2023-02-14T22:26:42.722Z,22.00
2023-02-14T22:29:12.778Z,19.17
2023-02-14T22:31:41.499Z,21.50
2023-02-14T22:34:10.047Z,19.80
2023-02-14T22:36:37.644Z,21.60
2023-02-14T22:39:06.392Z,19.10
2023-02-14T22:41:38.009Z,19.77
2023-02-14T22:44:06.806Z,22.33
2023-02-14T22:46:36.568Z,22.63
2023-02-14T22:49:04.073Z,19.10
2023-02-14T22:51:41.593Z,22.60
2023-02-14T22:54:16.321Z,21.17
2023-02-14T22:56:47.656Z,21.57
2023-02-14T22:59:17.762Z,21.93
2023-02-14T23:01:48.882Z,19.93
2023-02-14T23:04:22.559Z,21.30
2023-02-14T23:06:54.386Z,22.13
2023-02-14T23:09:22.813Z,19.80
2023-02-14T23:11:51.077Z,20.37
2023-02-14T23:14:38.223Z,18.27
2023-02-14T23:17:25.587Z,19.70
2023-02-14T23:20:12.838Z,18.70
2023-02-14T23:22:44.270Z,19.93
2023-02-14T23:25:13.117Z,19.20
2023-02-14T23:27:45.107Z,18.50
2023-02-14T23:30:23.265Z,18.60
2023-02-14T23:32:51.712Z,19.23
2023-02-14T23:35:19.802Z,20.47
2023-02-14T23:37:51.945Z,19.37
2023-02-14T23:40:19.426Z,19.73
2023-02-14T23:42:50.756Z,20.43
2023-02-14T23:45:36.818Z,20.97
2023-02-14T23:48:05.285Z,20.10
2023-02-14T23:50:32.872Z,21.57
2023-02-14T23:53:00.542Z,22.13
2023-02-14T23:55:28.111Z,20.27
2023-02-14T23:57:55.899Z,19.73
